• Join FlightAware (Why Join?)
  • Login
  • US Flag 
12:58PM EDT


 

Airport Tracker/Info


-or-


 

Live Flight TrackerFlight Track Log ✈ TCF3494 ✈ 05-Jun-2013 ✈ KORD - KLGA

Flight Track Log - Related Links

Times and Time Zones

All times are in EDT time to prevent confusion due to time zone crossing. See the TCF3494 flight status page for this flight to view local times or setup timezone preferences in your user account.

Time Position Orientation Groundspeed Altitude Reporting Facility
EDT Latitude Longitude Course Direction KTS MPH feet Rate Location/Type
08:13PM 41.9500 -87.9000 90° East 162 186 1,500  Level Chicago TRACON
08:14PM 41.9167 -87.8667 143° Southeast 178 205 3,100 1,560 Climbing Chicago TRACON
08:14PM 41.9019 -87.8344 122° Southeast 190 219 4,100 1,140 Climbing Chicago Center
08:15PM 41.8958 -87.7378 95° East 237 273 5,000 480 Climbing Chicago Center
08:16PM 41.8942 -87.6369 91° East 257 296 5,100 1,260 Climbing Chicago Center
08:17PM 41.9044 -87.5347 82° East 274 315 7,700 2,640 Climbing Chicago Center
08:18PM 41.9333 -86.9669 90° East  Level FlightAware Approximate
08:18PM 41.9164 -87.4072 83° East 286 329 10,700  Level Chicago Center
08:19PM 41.9261 -87.2867 84° East 319 367 13,000 2,100 Climbing Chicago Center
08:20PM 41.9372 -87.1633 83° East 332 382 15,100 2,040 Climbing Chicago Center
08:21PM 41.9450 -87.0325 85° East 350 403 17,300 1,920 Climbing Chicago Center
08:22PM 41.9475 -86.8986 89° East 358 412 19,100 1,800 Climbing Chicago Center
08:24PM 41.9492 -86.7336 89° East 370 426 21,100 1,740 Climbing Chicago Center
08:25PM 41.9511 -86.6014 89° East 383 441 22,700 1,440 Climbing Chicago Center
08:26PM 41.9531 -86.4514 89° East 399 459 24,100 900 Climbing Chicago Center
08:27PM 41.9544 -86.2958 89° East 417 480 24,600 660 Climbing Chicago Center
08:28PM 41.9436 -86.0919 94° East 455 524 25,500 900 Climbing Chicago Center
08:29PM 41.9275 -85.9200 97° East 465 535 26,500 960 Climbing Chicago Center
08:30PM 41.9111 -85.7431 97° East 473 544 27,500 960 Climbing Chicago Center
08:31PM 41.8944 -85.5603 97° East 488 562 28,600 720 Climbing Chicago Center
08:32PM 41.8756 -85.3736 98° East 496 571 29,000 180 Climbing Chicago Center
08:33PM 41.8569 -85.1822 97° East 508 585 29,000  Level Chicago Center
08:34PM 41.8381 -84.9942 98° East 505 581 29,000  Level Chicago Center
08:35PM 41.8186 -84.8042 98° East 509 586 29,000  Level Chicago Center
08:37PM 41.7839 -84.4625 98° East 503 579 29,000  Level Cleveland Center
08:38PM 41.7739 -84.2558 94° East 508 585 29,000  Level Cleveland Center
08:39PM 41.7736 -84.0608 90° East 508 585 29,000  Level Cleveland Center
08:40PM 41.7711 -83.8686 91° East 513 590 29,000  Level Cleveland Center
08:41PM 41.7703 -83.6764 90° East 518 596 29,000  Level Cleveland Center
08:42PM 41.7628 -83.4867 93° East 518 596 29,000  Level Cleveland Center
08:43PM 41.7442 -83.3050 98° East 507 583 29,000  Level Cleveland Center
08:44PM 41.7256 -83.1150 97° East 507 583 29,000  Level Cleveland Center
08:45PM 41.7067 -82.9306 98° East 507 583 29,000  Level Cleveland Center
08:46PM 41.6894 -82.7436 97° East 507 583 29,000  Level Cleveland Center
08:47PM 41.6694 -82.5733 99° East 507 583 29,000  Level Cleveland Center
08:48PM 41.6517 -82.3922 97° East 502 578 29,000  Level Cleveland Center
08:49PM 41.6319 -82.1889 97° East 502 578 29,000  Level Cleveland Center
08:50PM 41.6114 -82.0078 99° East 502 578 29,000  Level Cleveland Center
08:51PM 41.5925 -81.8269 98° East 502 578 29,000  Level Cleveland Center
08:52PM 41.5714 -81.6433 99° East 502 578 29,000  Level Cleveland Center
08:53PM 41.5522 -81.4628 98° East 502 578 29,000  Level Cleveland Center
08:54PM 41.5325 -81.2989 99° East 502 578 29,000  Level Cleveland Center
08:55PM 41.5106 -81.1183 99° East 502 578 29,000  Level Cleveland Center
08:56PM 41.4967 -80.9325 96° East 502 578 29,000  Level Cleveland Center
08:57PM 41.4783 -80.7494 98° East 502 578 29,000  Level Cleveland Center
08:58PM 41.4639 -80.5664 96° East 497 572 29,000  Level Cleveland Center
08:59PM 41.4450 -80.3669 97° East 504 580 29,000  Level Cleveland Center
09:00PM 41.4300 -80.2008 97° East 499 574 29,000  Level Cleveland Center
09:01PM 41.4125 -80.0156 97° East 504 580 29,000  Level Cleveland Center
09:02PM 41.3947 -79.8386 98° East 499 574 29,000  Level Cleveland Center
09:03PM 41.3767 -79.6589 98° East 499 574 29,000  Level Cleveland Center
09:04PM 41.3564 -79.4739 98° East 499 574 29,000  Level Cleveland Center
09:05PM 41.3378 -79.2944 98° East 499 574 29,000  Level Cleveland Center
09:06PM 41.3211 -79.1122 97° East 499 574 29,000  Level Cleveland Center
09:07PM 41.2997 -78.9303 99° East 499 574 29,000  Level Cleveland Center
09:08PM 41.2825 -78.7483 97° East 499 574 29,000  Level Cleveland Center
09:09PM 41.2606 -78.5639 99° East 499 574 29,000  Level Cleveland Center
09:11PM 41.2206 -78.1944 98° East 506 582 29,000  Level New York Center
09:12PM 41.1983 -78.0125 99° East 506 582 29,000  Level New York Center
09:13PM 41.1761 -77.8308 99° East 501 577 29,000  Level New York Center
09:14PM 41.1469 -77.6514 102° East 496 571 29,000  Level New York Center
09:15PM 41.1194 -77.4750 102° East 491 565 29,000  Level New York Center
09:16PM 41.0931 -77.3156 102° East 496 571 29,000  Level New York Center
09:17PM 41.0636 -77.1283 102° East 496 571 29,000 -180 Level New York Center
09:18PM 41.0356 -76.9522 102° East 496 571 28,700 -1,500 Descending New York Center
09:19PM 41.0050 -76.7733 103° East 496 571 26,100 -2,580 Descending New York Center
09:20PM 40.9781 -76.6033 102° East 491 565 23,600 -2,460 Descending New York Center
09:21PM 40.9506 -76.4417 103° East 468 539 21,200 -2,400 Descending New York Center
09:22PM 40.9267 -76.2886 102° East 446 513 18,800 -2,280 Descending New York Center
09:23PM 40.8919 -76.1319 106° East 412 474 16,700 -1,740 Descending New York Center
09:24PM 40.8586 -75.9922 107° East 404 465 15,400 -1,380 Descending New York Center
09:25PM 40.8253 -75.8525 107° East 394 453 14,000 -1,260 Descending New York Center
09:26PM 40.7969 -75.7325 107° East 389 448 13,000 -540 Descending New York Center
09:27PM 40.7628 -75.6014 109° East 382 440 13,000  Level New York Center
09:28PM 40.7272 -75.4536 108° East 382 440 13,000  Level New York Center
09:29PM 40.7008 -75.3286 106° East 382 440 13,000  Level New York Center
09:30PM 40.6744 -75.1956 105° East 382 440 13,000 -1,140 Level New York Center
09:31PM 40.6122 -75.0767 125° Southeast 357 411 10,800 -1,560 Descending New York Center
09:32PM 40.5578 -74.9694 124° Southeast 364 419 10,000 -480 Descending New York Center
09:32PM 40.5333 -74.8667 107° East 351 404 10,000  Level New York TRACON
09:34PM 40.4833 -74.7333 116° Southeast 357 411 10,000 -240 Level New York TRACON
09:35PM 40.4500 -74.6167 111° Southeast 301 346 9,600 -540 Descending New York TRACON
09:35PM 40.4333 -74.5333 105° East 294 338 9,000 -540 Descending New York TRACON
09:37PM 40.4667 -74.4167 69° East 298 343 8,600 -780 Descending New York TRACON
09:37PM 40.4833 -74.3333 75° East 289 333 7,500 -840 Descending New York TRACON
09:39PM 40.5167 -74.2167 69° East 287 330 7,000 -720 Descending New York TRACON
09:39PM 40.5500 -74.1333 62° Northeast 286 329 6,100 -1,320 Descending New York TRACON
09:40PM 40.6000 -74.0667 45° Northeast 274 315 4,500 -1,080 Descending New York TRACON
09:41PM 40.6667 -74.0333 21° North 269 310 4,000 -240 Descending New York TRACON
09:43PM 40.7500 -74.0167 North 267 307 4,000  Level New York TRACON
09:44PM 40.8167 -73.9833 21° North 270 311 4,000 -300 Level New York TRACON
09:44PM 40.8667 -73.9333 37° Northeast 267 307 3,500 -540 Descending New York TRACON
09:46PM 40.9167 -73.8667 45° Northeast 220 253 3,000 -600 Descending New York TRACON
09:47PM 40.9333 -73.8167 66° East 177 204 2,300 -540 Descending New York TRACON
09:47PM 40.9000 -73.8000 159° South 161 185 2,000 -480 Descending New York TRACON
09:49PM 40.8500 -73.8167 194° South 145 167 1,400 -600 Descending New York TRACON